createdAt,value
2018-10-17T00:00:13.596Z,13.08
2018-10-17T00:02:43.155Z,13.20
2018-10-17T00:05:12.505Z,13.60
2018-10-17T00:07:41.600Z,15.13
2018-10-17T00:10:11.338Z,14.77
2018-10-17T00:12:41.275Z,16.27
2018-10-17T00:15:10.626Z,15.23
2018-10-17T00:17:39.835Z,16.30
2018-10-17T00:20:09.969Z,16.67
2018-10-17T00:22:39.172Z,15.37
2018-10-17T00:25:08.618Z,16.20
2018-10-17T00:27:37.870Z,15.67
2018-10-17T00:30:10.467Z,15.50
2018-10-17T00:32:39.775Z,15.27
2018-10-17T00:35:09.893Z,15.80
2018-10-17T00:37:39.167Z,16.13
2018-10-17T00:40:08.430Z,16.50
2018-10-17T00:42:37.928Z,15.97
2018-10-17T00:45:07.722Z,15.40
2018-10-17T00:47:36.932Z,15.37
2018-10-17T00:50:06.177Z,15.67
2018-10-17T00:52:35.355Z,16.80
2018-10-17T00:55:04.702Z,15.67
2018-10-17T00:57:33.890Z,16.20
2018-10-17T01:00:03.261Z,16.97
2018-10-17T01:02:32.523Z,17.17
2018-10-17T01:05:02.163Z,15.80
2018-10-17T01:07:31.318Z,16.77
2018-10-17T01:10:00.512Z,16.73
2018-10-17T01:12:29.714Z,17.10
2018-10-17T01:14:58.883Z,17.10
2018-10-17T01:17:28.064Z,17.07
2018-10-17T01:19:57.301Z,16.45
2018-10-17T01:22:26.518Z,17.40
2018-10-17T01:24:55.698Z,17.80
2018-10-17T01:27:24.916Z,16.97
2018-10-17T01:29:54.104Z,18.03
2018-10-17T01:32:23.333Z,16.33
2018-10-17T01:34:52.606Z,19.10
2018-10-17T01:37:21.796Z,16.90
2018-10-17T01:39:50.963Z,19.07
2018-10-17T01:42:20.159Z,16.80
2018-10-17T01:44:49.373Z,17.33
2018-10-17T01:47:18.602Z,19.03
2018-10-17T01:49:47.786Z,19.00
2018-10-17T01:52:17.479Z,17.67
2018-10-17T01:54:46.689Z,19.30
2018-10-17T01:57:16.486Z,18.80
2018-10-17T01:59:45.695Z,17.42
2018-10-17T02:02:15.493Z,18.32
2018-10-17T02:04:44.764Z,17.27
2018-10-17T02:07:14.782Z,19.23
2018-10-17T02:09:43.888Z,18.87
2018-10-17T02:12:14.627Z,18.67
2018-10-17T02:14:43.785Z,18.70
2018-10-17T02:17:13.715Z,17.97
2018-10-17T02:19:42.957Z,19.40
2018-10-17T02:22:12.689Z,17.60
2018-10-17T02:24:41.856Z,18.17
2018-10-17T02:27:11.113Z,20.40
2018-10-17T02:29:40.308Z,18.73
2018-10-17T02:32:09.597Z,19.40
2018-10-17T02:34:43.992Z,19.03
2018-10-17T02:37:13.224Z,20.40
2018-10-17T02:39:42.427Z,20.50
2018-10-17T02:42:11.685Z,19.23
2018-10-17T02:44:40.901Z,20.10
2018-10-17T02:47:10.228Z,20.60
2018-10-17T02:49:39.425Z,19.63
2018-10-17T02:52:08.671Z,20.60
2018-10-17T02:54:37.900Z,20.60
2018-10-17T02:57:07.131Z,22.20
2018-10-17T02:59:36.329Z,20.70
2018-10-17T03:02:05.567Z,21.40
2018-10-17T03:04:34.740Z,21.33
2018-10-17T03:07:04.033Z,21.63
2018-10-17T03:09:33.255Z,23.40
2018-10-17T03:12:02.498Z,23.73
2018-10-17T03:14:31.694Z,23.13
2018-10-17T03:17:03.790Z,24.23
2018-10-17T03:19:32.920Z,22.27
2018-10-17T03:22:02.156Z,22.00
2018-10-17T03:24:31.341Z,20.40
2018-10-17T03:27:00.532Z,23.35
2018-10-17T03:29:29.735Z,22.13
2018-10-17T03:31:58.912Z,22.00
2018-10-17T03:34:28.068Z,23.23
2018-10-17T03:36:57.275Z,21.00
2018-10-17T03:39:26.441Z,22.63
2018-10-17T03:41:55.663Z,24.73
2018-10-17T03:44:24.895Z,24.10
2018-10-17T03:46:54.089Z,22.53
2018-10-17T03:49:24.068Z,26.42
2018-10-17T03:51:53.238Z,25.90
2018-10-17T03:54:22.463Z,26.13
2018-10-17T03:56:51.619Z,27.93
2018-10-17T03:59:21.361Z,26.33
2018-10-17T04:01:50.395Z,24.80
2018-10-17T04:04:19.607Z,23.67
2018-10-17T04:06:48.779Z,23.60
2018-10-17T04:09:18.063Z,23.73
2018-10-17T04:11:47.236Z,23.17
2018-10-17T04:14:16.631Z,23.77
2018-10-17T04:16:45.802Z,24.63
2018-10-17T04:19:15.080Z,25.53
2018-10-17T04:21:44.208Z,28.05
2018-10-17T04:24:13.925Z,26.73
2018-10-17T04:26:43.104Z,27.30
2018-10-17T04:29:12.393Z,28.15
2018-10-17T04:31:41.482Z,26.30
2018-10-17T04:34:10.699Z,25.63
2018-10-17T04:36:39.937Z,25.80
2018-10-17T04:39:10.368Z,25.50
2018-10-17T04:41:39.612Z,23.73
2018-10-17T04:44:09.845Z,25.30
2018-10-17T04:46:42.115Z,24.93
2018-10-17T04:49:11.645Z,25.73
2018-10-17T04:51:40.871Z,26.07
2018-10-17T04:54:10.066Z,25.83
2018-10-17T04:56:39.252Z,26.57
2018-10-17T04:59:08.498Z,25.07
2018-10-17T05:01:37.675Z,24.23
2018-10-17T05:04:06.962Z,22.77
2018-10-17T05:06:36.193Z,24.10
2018-10-17T05:09:08.767Z,23.80
2018-10-17T05:11:38.222Z,22.80
2018-10-17T05:14:07.659Z,23.00
2018-10-17T05:16:37.164Z,23.80
2018-10-17T05:19:06.435Z,23.90
2018-10-17T05:21:35.548Z,23.57
2018-10-17T05:24:04.806Z,22.57
2018-10-17T05:26:33.999Z,23.00
2018-10-17T05:29:03.311Z,23.30
2018-10-17T05:31:33.086Z,23.37
2018-10-17T05:34:02.430Z,23.50
2018-10-17T05:36:31.700Z,24.27
2018-10-17T05:39:00.927Z,22.67
2018-10-17T05:41:30.136Z,24.83
2018-10-17T05:43:59.385Z,24.60
2018-10-17T05:46:28.595Z,25.73
2018-10-17T05:48:57.874Z,22.03
2018-10-17T05:51:27.052Z,23.40
2018-10-17T05:53:56.211Z,22.30
2018-10-17T05:56:25.407Z,22.43
2018-10-17T05:58:54.639Z,22.40
2018-10-17T06:01:23.965Z,22.70
2018-10-17T06:03:53.106Z,24.33
2018-10-17T06:06:22.397Z,21.73
2018-10-17T06:08:51.558Z,23.60
2018-10-17T06:11:20.805Z,22.20
2018-10-17T06:13:50.041Z,23.83
2018-10-17T06:16:19.281Z,22.60
2018-10-17T06:18:48.460Z,21.27
2018-10-17T06:21:17.661Z,19.90
2018-10-17T06:23:46.818Z,22.10
2018-10-17T06:26:16.968Z,21.67
2018-10-17T06:28:46.215Z,22.43
2018-10-17T06:31:15.528Z,22.00
2018-10-17T06:33:44.665Z,21.03
2018-10-17T06:36:13.848Z,21.00
2018-10-17T06:38:43.036Z,19.47
2018-10-17T06:41:12.489Z,19.70
2018-10-17T06:43:41.574Z,20.17
2018-10-17T06:46:11.174Z,19.10
2018-10-17T06:48:40.371Z,18.53
2018-10-17T06:51:10.015Z,18.73
2018-10-17T06:53:39.179Z,21.47
2018-10-17T06:56:08.854Z,19.27
2018-10-17T06:58:38.063Z,18.20
2018-10-17T07:01:07.495Z,18.53
2018-10-17T07:03:36.678Z,19.07
2018-10-17T07:06:06.059Z,21.47
2018-10-17T07:08:35.272Z,20.20
2018-10-17T07:11:04.652Z,19.90
2018-10-17T07:13:33.832Z,18.70
2018-10-17T07:16:03.060Z,19.50
2018-10-17T07:18:32.266Z,20.33
2018-10-17T07:21:01.489Z,19.77
2018-10-17T07:23:30.689Z,20.80
2018-10-17T07:25:59.854Z,21.40
2018-10-17T07:28:29.091Z,19.87
2018-10-17T07:30:59.300Z,20.55
2018-10-17T07:33:28.447Z,20.23
2018-10-17T07:35:57.742Z,20.43
2018-10-17T07:38:26.843Z,21.67
2018-10-17T07:40:56.361Z,22.87
2018-10-17T07:43:25.519Z,20.70
2018-10-17T07:45:54.825Z,24.40
2018-10-17T07:48:24.017Z,21.03
2018-10-17T07:50:53.254Z,23.27
2018-10-17T07:53:22.497Z,23.70
2018-10-17T07:55:51.718Z,22.07
2018-10-17T07:58:20.890Z,21.70
2018-10-17T08:00:50.184Z,18.87
2018-10-17T08:03:19.391Z,21.77
2018-10-17T08:05:48.647Z,22.50
2018-10-17T08:08:17.828Z,19.67
2018-10-17T08:10:47.052Z,20.30
2018-10-17T08:13:16.214Z,18.70
2018-10-17T08:15:45.434Z,19.77
2018-10-17T08:18:14.835Z,19.30
2018-10-17T08:20:43.943Z,20.37
2018-10-17T08:23:13.385Z,19.23
2018-10-17T08:25:42.573Z,18.90
2018-10-17T08:28:12.045Z,19.00
2018-10-17T08:30:41.279Z,18.90
2018-10-17T08:33:11.001Z,19.07
2018-10-17T08:35:40.324Z,18.30
2018-10-17T08:38:10.100Z,18.73
2018-10-17T08:40:39.267Z,20.70
2018-10-17T08:43:08.927Z,17.60
2018-10-17T08:45:38.183Z,20.10
2018-10-17T08:48:07.644Z,19.87
2018-10-17T08:50:36.917Z,20.00
2018-10-17T08:53:06.118Z,19.27
2018-10-17T08:55:35.315Z,21.27
2018-10-17T08:58:04.636Z,22.20
2018-10-17T09:00:33.879Z,20.57
2018-10-17T09:03:03.115Z,20.43
2018-10-17T09:05:32.259Z,21.93
2018-10-17T09:08:01.569Z,22.17
2018-10-17T09:10:30.757Z,19.80
2018-10-17T09:12:59.983Z,19.47
2018-10-17T09:15:29.188Z,20.20
2018-10-17T09:17:58.438Z,20.70
2018-10-17T09:20:27.777Z,22.03
2018-10-17T09:22:56.851Z,23.50
2018-10-17T09:25:26.074Z,19.70
2018-10-17T09:27:55.212Z,20.47
2018-10-17T09:30:24.617Z,20.08
2018-10-17T09:32:53.648Z,29.07
2018-10-17T09:35:22.854Z,19.80
2018-10-17T09:37:52.046Z,20.27
2018-10-17T09:40:21.259Z,21.80
2018-10-17T09:42:50.454Z,20.00
2018-10-17T09:45:19.744Z,20.27
2018-10-17T09:47:49.087Z,20.27
2018-10-17T09:50:18.267Z,20.07
2018-10-17T09:52:47.535Z,20.27
2018-10-17T09:55:16.801Z,20.30
2018-10-17T09:57:46.049Z,19.77
2018-10-17T10:00:23.960Z,17.63
2018-10-17T10:02:54.582Z,19.95
2018-10-17T10:05:25.012Z,20.57
2018-10-17T10:07:55.024Z,19.57
2018-10-17T10:10:25.143Z,18.47
2018-10-17T10:12:54.334Z,18.40
2018-10-17T10:15:23.531Z,19.73
2018-10-17T10:17:52.727Z,19.07
2018-10-17T10:20:21.932Z,18.70
2018-10-17T10:22:51.162Z,18.10
2018-10-17T10:25:20.381Z,16.67
2018-10-17T10:27:49.573Z,18.37
2018-10-17T10:30:18.764Z,19.20
2018-10-17T10:32:47.916Z,17.93
2018-10-17T10:35:17.096Z,17.40
2018-10-17T10:37:46.323Z,18.07
2018-10-17T10:40:15.637Z,17.77
2018-10-17T10:42:44.738Z,19.00
2018-10-17T10:45:14.252Z,19.30
2018-10-17T10:47:43.473Z,17.70
2018-10-17T10:50:13.597Z,16.67
2018-10-17T10:52:42.821Z,17.63
2018-10-17T10:55:12.546Z,16.60
2018-10-17T10:57:41.767Z,17.70
2018-10-17T11:00:12.020Z,17.03
2018-10-17T11:02:41.209Z,17.63
2018-10-17T11:05:12.016Z,16.57
2018-10-17T11:07:41.177Z,17.00
2018-10-17T11:10:12.154Z,16.48
2018-10-17T11:12:41.382Z,14.90
2018-10-17T11:15:12.279Z,16.27
2018-10-17T11:17:41.533Z,15.83
2018-10-17T11:20:12.353Z,14.23
2018-10-17T11:22:41.566Z,15.78
2018-10-17T11:25:11.564Z,14.87
2018-10-17T11:27:40.778Z,15.77
2018-10-17T11:30:11.450Z,14.40
2018-10-17T11:32:40.952Z,18.10
2018-10-17T11:35:11.958Z,15.17
2018-10-17T11:37:41.177Z,15.90
2018-10-17T11:40:11.113Z,15.57
2018-10-17T11:42:40.310Z,15.10
2018-10-17T11:45:10.875Z,14.10
2018-10-17T11:47:40.082Z,14.07
2018-10-17T11:50:10.477Z,12.67
2018-10-17T11:52:40.124Z,14.43
2018-10-17T11:55:10.966Z,14.90
2018-10-17T11:57:40.197Z,14.23
2018-10-17T12:00:12.248Z,13.20
2018-10-17T12:02:41.508Z,13.30
2018-10-17T12:05:14.251Z,14.68
2018-10-17T12:07:43.555Z,14.10
2018-10-17T12:10:13.337Z,14.00
2018-10-17T12:12:42.550Z,14.23
2018-10-17T12:15:13.905Z,12.60
2018-10-17T12:17:43.288Z,13.87
2018-10-17T12:20:14.085Z,13.50
2018-10-17T12:22:44.290Z,12.67
2018-10-17T12:25:14.052Z,13.08
2018-10-17T12:27:43.360Z,12.85
2018-10-17T12:30:14.686Z,11.23
2018-10-17T12:32:43.871Z,10.97
2018-10-17T12:35:13.454Z,9.88
2018-10-17T12:37:42.646Z,10.60
2018-10-17T12:40:13.324Z,10.53
2018-10-17T12:42:42.465Z,10.80
2018-10-17T12:45:13.371Z,19.80
2018-10-17T12:47:42.583Z,10.47
2018-10-17T12:50:12.486Z,8.97
2018-10-17T12:52:41.833Z,10.50
2018-10-17T12:55:11.710Z,11.05
2018-10-17T12:57:40.872Z,10.23
2018-10-17T13:00:11.448Z,10.83
2018-10-17T13:02:40.931Z,10.20
2018-10-17T13:05:11.698Z,9.93
2018-10-17T13:07:40.801Z,9.17
2018-10-17T13:10:11.883Z,8.60
2018-10-17T13:12:41.311Z,9.17
2018-10-17T13:15:12.830Z,10.77
2018-10-17T13:17:42.967Z,10.10
2018-10-17T13:20:12.632Z,8.27
2018-10-17T13:22:41.841Z,9.70
2018-10-17T13:25:13.823Z,9.93
2018-10-17T13:27:43.014Z,8.80
2018-10-17T13:30:12.694Z,9.20
2018-10-17T13:32:41.891Z,7.97
2018-10-17T13:35:11.913Z,9.23
2018-10-17T13:37:41.091Z,10.67
2018-10-17T13:40:11.432Z,8.98
2018-10-17T13:42:40.657Z,9.00
2018-10-17T13:45:10.620Z,10.20
2018-10-17T13:47:39.798Z,9.63
2018-10-17T13:50:10.202Z,8.13
2018-10-17T13:52:39.450Z,9.60
2018-10-17T13:55:09.887Z,9.17
2018-10-17T13:57:39.232Z,8.83
2018-10-17T14:00:12.181Z,8.23
2018-10-17T14:02:43.330Z,8.85
2018-10-17T14:05:13.234Z,9.00
2018-10-17T14:07:42.470Z,7.60
2018-10-17T14:10:12.872Z,8.10
2018-10-17T14:12:42.131Z,8.20
2018-10-17T14:15:12.600Z,7.53
2018-10-17T14:17:41.756Z,8.27
2018-10-17T14:20:10.979Z,9.40
2018-10-17T14:22:40.218Z,7.90
2018-10-17T14:25:10.579Z,9.17
2018-10-17T14:27:39.775Z,9.17
2018-10-17T14:30:10.745Z,8.27
2018-10-17T14:32:38.902Z,7.70
2018-10-17T14:35:10.886Z,7.73
2018-10-17T14:37:40.090Z,8.23
2018-10-17T14:40:09.795Z,7.00
2018-10-17T14:42:38.993Z,6.80
2018-10-17T14:45:10.201Z,7.90
2018-10-17T14:47:39.852Z,7.10
2018-10-17T14:50:09.639Z,7.07
2018-10-17T14:52:38.835Z,6.87
2018-10-17T14:55:09.059Z,7.83
2018-10-17T14:57:38.345Z,7.33
2018-10-17T15:00:11.839Z,7.20
2018-10-17T15:02:41.126Z,6.73
2018-10-17T15:05:11.860Z,7.53
2018-10-17T15:07:41.963Z,7.53
2018-10-17T15:10:12.257Z,7.03
2018-10-17T15:12:41.402Z,7.43
2018-10-17T15:15:12.947Z,6.87
2018-10-17T15:17:42.098Z,7.30
2018-10-17T15:20:11.912Z,7.03
2018-10-17T15:22:41.128Z,7.20
2018-10-17T15:25:10.666Z,7.27
2018-10-17T15:27:39.865Z,7.47
2018-10-17T15:30:09.603Z,6.83
2018-10-17T15:32:38.841Z,8.60
2018-10-17T15:35:09.647Z,8.37
2018-10-17T15:37:38.855Z,7.40
2018-10-17T15:40:08.369Z,8.07
2018-10-17T15:42:37.523Z,8.07
2018-10-17T15:45:06.843Z,7.77
2018-10-17T15:47:36.022Z,7.90
2018-10-17T15:50:05.420Z,8.13
2018-10-17T15:52:34.585Z,8.00
2018-10-17T15:55:04.413Z,8.50
2018-10-17T15:57:33.627Z,8.77
2018-10-17T16:00:02.920Z,8.17
2018-10-17T16:02:32.086Z,8.40
2018-10-17T16:05:01.403Z,7.97
2018-10-17T16:07:30.630Z,8.30
2018-10-17T16:09:59.803Z,7.63
2018-10-17T16:12:28.960Z,7.70
2018-10-17T16:14:58.222Z,8.70
2018-10-17T16:17:27.380Z,8.53
2018-10-17T16:19:56.689Z,9.00
2018-10-17T16:22:26.183Z,10.07
2018-10-17T16:24:55.378Z,9.30
2018-10-17T16:27:24.640Z,9.80
2018-10-17T16:29:54.102Z,8.70
2018-10-17T16:32:23.368Z,9.20
2018-10-17T16:34:52.654Z,9.60
2018-10-17T16:37:21.894Z,10.07
2018-10-17T16:39:51.140Z,10.53
2018-10-17T16:42:20.464Z,10.80
2018-10-17T16:44:49.677Z,11.60
2018-10-17T16:47:19.054Z,12.50
2018-10-17T16:49:48.377Z,10.87
2018-10-17T16:52:17.678Z,10.47
2018-10-17T16:54:47.025Z,10.37
2018-10-17T16:57:16.305Z,10.43
2018-10-17T16:59:47.229Z,11.60
2018-10-17T17:02:17.005Z,12.58
2018-10-17T17:04:46.190Z,11.33
2018-10-17T17:07:15.791Z,13.20
2018-10-17T17:09:45.946Z,11.68
2018-10-17T17:12:16.176Z,10.50
2018-10-17T17:14:45.728Z,10.93
2018-10-17T17:17:14.897Z,10.50
2018-10-17T17:19:44.080Z,10.08
2018-10-17T17:22:14.773Z,11.03
2018-10-17T17:24:43.959Z,10.17
2018-10-17T17:27:13.356Z,10.77
2018-10-17T17:29:42.484Z,11.13
2018-10-17T17:32:11.850Z,10.73
2018-10-17T17:34:41.062Z,10.77
2018-10-17T17:37:10.263Z,9.23
2018-10-17T17:39:39.543Z,9.60
2018-10-17T17:42:08.819Z,9.30
2018-10-17T17:45:03.379Z,9.20
2018-10-17T17:47:32.576Z,10.97
2018-10-17T17:50:02.300Z,11.30
2018-10-17T17:52:31.632Z,10.90
2018-10-17T17:55:01.464Z,10.97
2018-10-17T17:57:30.651Z,13.00
2018-10-17T17:59:59.869Z,16.60
2018-10-17T18:02:29.185Z,12.27
2018-10-17T18:04:58.394Z,11.00
2018-10-17T18:07:28.071Z,12.20
2018-10-17T18:09:57.284Z,11.47
2018-10-17T18:12:26.508Z,10.40
2018-10-17T18:14:55.719Z,10.80
2018-10-17T18:17:24.914Z,10.30
2018-10-17T18:19:54.142Z,11.20
2018-10-17T18:22:23.379Z,11.50
2018-10-17T18:24:52.646Z,11.97
2018-10-17T18:27:21.914Z,11.10
2018-10-17T18:29:51.125Z,10.80
2018-10-17T18:32:20.377Z,11.18
2018-10-17T18:34:49.604Z,11.45
2018-10-17T18:37:19.025Z,11.78
2018-10-17T18:39:48.467Z,11.50
2018-10-17T18:42:17.809Z,11.70
2018-10-17T18:44:47.213Z,11.35
2018-10-17T18:47:17.716Z,11.30
2018-10-17T18:49:47.622Z,11.47
2018-10-17T18:52:17.689Z,12.67
2018-10-17T18:54:48.243Z,12.27
2018-10-17T18:57:18.337Z,13.77
2018-10-17T18:59:47.742Z,11.87
2018-10-17T19:02:17.813Z,12.40
2018-10-17T19:04:47.226Z,11.95
2018-10-17T19:07:17.326Z,11.70
2018-10-17T19:09:46.758Z,12.60
2018-10-17T19:12:16.068Z,11.70
2018-10-17T19:14:45.456Z,11.40
2018-10-17T19:17:15.065Z,11.13
2018-10-17T19:19:44.324Z,11.90
2018-10-17T19:22:13.635Z,11.97
2018-10-17T19:24:43.009Z,13.20
2018-10-17T19:27:12.446Z,13.97
2018-10-17T19:29:41.775Z,12.67
2018-10-17T19:32:11.009Z,14.80
2018-10-17T19:34:40.336Z,13.27
2018-10-17T19:37:09.607Z,13.83
2018-10-17T19:39:39.038Z,14.40
2018-10-17T19:42:08.385Z,14.80
2018-10-17T19:44:37.619Z,13.93
2018-10-17T19:47:06.902Z,14.37
2018-10-17T19:49:36.170Z,13.60
2018-10-17T19:52:05.436Z,12.63
2018-10-17T19:54:34.657Z,13.87
2018-10-17T19:57:04.908Z,13.57
2018-10-17T19:59:34.103Z,13.13
2018-10-17T20:02:03.350Z,14.13
2018-10-17T20:04:32.524Z,14.00
2018-10-17T20:07:01.773Z,14.10
2018-10-17T20:09:30.935Z,14.77
2018-10-17T20:12:00.256Z,15.13
2018-10-17T20:14:29.469Z,14.00
2018-10-17T20:16:58.754Z,13.23
2018-10-17T20:19:28.024Z,13.97
2018-10-17T20:21:57.335Z,13.70
2018-10-17T20:24:26.658Z,15.13
2018-10-17T20:26:55.979Z,13.70
2018-10-17T20:29:25.161Z,14.27
2018-10-17T20:31:54.438Z,14.30
2018-10-17T20:34:23.637Z,15.13
2018-10-17T20:36:52.902Z,13.17
2018-10-17T20:39:22.151Z,13.70
2018-10-17T20:41:51.292Z,15.73
2018-10-17T20:44:20.472Z,15.73
2018-10-17T20:46:49.714Z,16.87
2018-10-17T20:49:19.009Z,15.58
2018-10-17T20:51:48.635Z,15.20
2018-10-17T20:54:17.811Z,15.50
2018-10-17T20:56:47.195Z,16.17
2018-10-17T20:59:16.433Z,16.00
2018-10-17T21:01:46.591Z,15.23
2018-10-17T21:04:16.304Z,19.63
2018-10-17T21:06:45.617Z,15.47
2018-10-17T21:09:15.735Z,16.10
2018-10-17T21:11:44.940Z,14.80
2018-10-17T21:14:14.684Z,15.47
2018-10-17T21:16:43.795Z,14.97
2018-10-17T21:19:13.014Z,14.40
2018-10-17T21:21:42.238Z,15.17
2018-10-17T21:24:11.459Z,14.93
2018-10-17T21:26:40.770Z,14.40
2018-10-17T21:29:09.954Z,15.23
2018-10-17T21:31:39.258Z,14.77
2018-10-17T21:34:08.448Z,13.70
2018-10-17T21:36:37.765Z,15.10
2018-10-17T21:39:10.813Z,14.90
2018-10-17T21:41:40.055Z,15.57
2018-10-17T21:44:10.259Z,14.77
2018-10-17T21:46:39.762Z,14.97
2018-10-17T21:49:09.716Z,16.32
2018-10-17T21:51:39.450Z,16.30
2018-10-17T21:54:08.687Z,17.00
2018-10-17T21:56:38.030Z,16.50
2018-10-17T21:59:07.590Z,15.70
2018-10-17T22:01:36.876Z,18.10
2018-10-17T22:04:06.117Z,16.93
2018-10-17T22:06:35.348Z,16.57
2018-10-17T22:09:06.642Z,17.60
2018-10-17T22:11:35.838Z,16.33
2018-10-17T22:14:05.338Z,17.48
2018-10-17T22:16:39.559Z,16.37
2018-10-17T22:19:08.896Z,18.80
2018-10-17T22:21:37.940Z,17.77
2018-10-17T22:39:14.552Z,17.90
2018-10-17T22:41:44.808Z,19.67
2018-10-17T22:44:14.437Z,18.20
2018-10-17T22:46:44.443Z,18.10
2018-10-17T22:49:13.848Z,18.37
2018-10-17T22:51:43.015Z,17.83
2018-10-17T22:54:12.439Z,19.30
2018-10-17T22:56:41.604Z,19.60
2018-10-17T22:59:10.807Z,19.50
2018-10-17T23:01:40.115Z,18.63
2018-10-17T23:04:09.599Z,17.87
2018-10-17T23:06:38.966Z,18.10
2018-10-17T23:09:10.104Z,19.50
2018-10-17T23:11:39.400Z,19.80
2018-10-17T23:14:09.051Z,19.60
2018-10-17T23:16:38.841Z,19.67
2018-10-17T23:19:08.563Z,18.40
2018-10-17T23:21:37.848Z,18.60
2018-10-17T23:24:07.090Z,20.30
2018-10-17T23:26:36.292Z,19.40
2018-10-17T23:29:05.491Z,19.57
2018-10-17T23:31:34.719Z,19.45
2018-10-17T23:34:03.931Z,20.53
2018-10-17T23:36:33.130Z,20.37
2018-10-17T23:39:02.327Z,19.70
2018-10-17T23:41:31.552Z,20.00
2018-10-17T23:44:00.774Z,19.93
2018-10-17T23:46:30.000Z,19.20
2018-10-17T23:48:59.231Z,20.40
2018-10-17T23:51:28.459Z,20.93
2018-10-17T23:53:57.678Z,21.07
2018-10-17T23:56:26.886Z,21.10
2018-10-17T23:58:56.060Z,22.30
